createdAt,value
2018-05-06T00:01:34.051Z,16
2018-05-06T00:11:27.785Z,16
2018-05-06T00:21:27.946Z,16
2018-05-06T00:31:28.651Z,16
2018-05-06T00:41:28.524Z,16
2018-05-06T00:51:27.546Z,16
2018-05-06T01:01:27.486Z,16
2018-05-06T01:11:28.784Z,16
2018-05-06T01:21:27.576Z,16
2018-05-06T01:31:27.905Z,16
2018-05-06T01:41:27.535Z,16
2018-05-06T01:51:27.256Z,15
2018-05-06T02:01:27.836Z,15
2018-05-06T02:11:29.132Z,15
2018-05-06T02:21:27.349Z,15
2018-05-06T02:31:27.936Z,15
2018-05-06T02:41:27.551Z,15
2018-05-06T02:51:28.913Z,14
2018-05-06T03:01:28.376Z,15
2018-05-06T03:11:27.172Z,15
2018-05-06T03:21:27.922Z,14
2018-05-06T03:31:29.648Z,14
2018-05-06T03:41:27.377Z,15
2018-05-06T03:51:27.324Z,15
2018-05-06T04:01:27.640Z,14
2018-05-06T04:11:27.335Z,15
2018-05-06T04:21:27.259Z,15
2018-05-06T04:31:28.139Z,14
2018-05-06T04:41:28.210Z,15
2018-05-06T04:51:27.314Z,15
2018-05-06T05:01:26.980Z,15
2018-05-06T05:11:27.902Z,15
2018-05-06T05:21:28.546Z,15
2018-05-06T05:31:27.549Z,16
2018-05-06T05:41:27.651Z,16
2018-05-06T05:51:27.874Z,16
2018-05-06T06:01:28.984Z,16
2018-05-06T06:11:28.209Z,17
2018-05-06T06:21:27.199Z,16
2018-05-06T06:31:28.167Z,17
2018-05-06T06:41:28.140Z,17
2018-05-06T06:51:28.169Z,17
2018-05-06T07:01:28.629Z,17
2018-05-06T07:11:27.532Z,17
2018-05-06T07:21:28.044Z,17
2018-05-06T07:31:28.033Z,17
2018-05-06T07:41:28.744Z,18
2018-05-06T07:51:27.605Z,18
2018-05-06T08:01:28.180Z,18
2018-05-06T08:11:27.026Z,18
2018-05-06T08:21:28.684Z,18
2018-05-06T08:31:28.030Z,18
2018-05-06T08:41:26.793Z,18
2018-05-06T08:51:26.971Z,19
2018-05-06T09:01:28.296Z,19
2018-05-06T09:11:27.342Z,19
2018-05-06T09:21:30.155Z,19
2018-05-06T09:31:28.480Z,20
2018-05-06T09:41:26.280Z,20
2018-05-06T09:51:28.012Z,20
2018-05-06T10:01:26.768Z,20
2018-05-06T10:11:26.807Z,20
2018-05-06T10:21:27.782Z,20
2018-05-06T10:31:28.580Z,20
2018-05-06T10:41:27.589Z,20
2018-05-06T10:51:26.565Z,20
2018-05-06T11:01:28.262Z,21
2018-05-06T11:11:28.111Z,20
2018-05-06T11:21:27.342Z,21
2018-05-06T11:31:26.176Z,21
2018-05-06T11:41:27.904Z,21
2018-05-06T11:51:27.550Z,21
2018-05-06T12:01:27.363Z,21
2018-05-06T12:11:27.219Z,22
2018-05-06T12:21:26.343Z,22
2018-05-06T12:31:26.361Z,22
2018-05-06T12:41:27.687Z,22
2018-05-06T12:51:27.481Z,22
2018-05-06T13:01:26.798Z,22
2018-05-06T13:11:27.300Z,22
2018-05-06T13:21:27.769Z,22
2018-05-06T13:31:27.447Z,22
2018-05-06T13:41:27.162Z,23
2018-05-06T13:51:27.720Z,23
2018-05-06T14:01:26.758Z,23
2018-05-06T14:11:27.008Z,23
2018-05-06T14:21:27.160Z,22
2018-05-06T14:31:27.609Z,23
2018-05-06T14:41:27.060Z,23
2018-05-06T14:51:26.034Z,23
2018-05-06T15:01:26.878Z,23
2018-05-06T15:11:28.386Z,23
2018-05-06T15:21:27.110Z,23
2018-05-06T15:31:27.062Z,23
2018-05-06T15:41:28.224Z,24
2018-05-06T15:51:26.131Z,23
2018-05-06T16:01:27.179Z,24
2018-05-06T16:11:27.243Z,25
2018-05-06T16:21:26.353Z,24
2018-05-06T16:31:26.259Z,24
2018-05-06T16:41:27.196Z,24
2018-05-06T16:51:26.992Z,24
2018-05-06T17:01:26.816Z,23
2018-05-06T17:11:26.620Z,23
2018-05-06T17:21:28.065Z,23
2018-05-06T17:31:27.164Z,22
2018-05-06T17:41:38.711Z,22
2018-05-06T17:51:26.455Z,22
2018-05-06T18:01:30.129Z,21
2018-05-06T18:11:29.675Z,21
2018-05-06T18:21:27.276Z,21
2018-05-06T18:31:28.043Z,21
2018-05-06T18:41:28.147Z,20
2018-05-06T18:51:56.810Z,20
2018-05-06T19:01:26.628Z,20
2018-05-06T19:11:27.522Z,20
2018-05-06T19:21:29.970Z,20
2018-05-06T19:31:29.510Z,20
2018-05-06T19:41:27.962Z,20
2018-05-06T19:51:28.095Z,20
2018-05-06T20:01:28.259Z,19
2018-05-06T20:21:29.513Z,19
2018-05-06T20:31:28.197Z,18
2018-05-06T20:41:27.513Z,18
2018-05-06T20:51:28.011Z,18
2018-05-06T21:01:27.758Z,18
2018-05-06T21:11:45.588Z,18
2018-05-06T21:21:45.014Z,18
2018-05-06T21:31:29.519Z,17
2018-05-06T21:41:33.866Z,18
2018-05-06T21:51:26.553Z,17
2018-05-06T22:01:27.535Z,17
2018-05-06T22:11:28.716Z,17
2018-05-06T22:21:27.799Z,17
2018-05-06T22:31:27.969Z,17
2018-05-06T22:41:27.956Z,16
2018-05-06T22:51:27.463Z,17
2018-05-06T23:01:27.681Z,17
2018-05-06T23:11:27.915Z,17
2018-05-06T23:21:28.350Z,17
2018-05-06T23:31:27.337Z,17
2018-05-06T23:41:30.374Z,16
2018-05-06T23:51:28.035Z,16
